WetterOnline ( https://www.wetteronline.de )

Wetter aktuell Schkopau

Aktuelles Wetter: Leipzig/Halle (136m)

6-stündlich | Neueste Meldungen
Ortszeit Temperatur Wetter
Sa, 16.10. 2:00 4.7° C wolkenlos
Fr, 15.10. 20:00 7.3° C wolkenlos
Fr, 15.10. 14:00 12.2° C leichter Regen
Fr, 15.10. 8:00 11.5° C bewölkt
Fr, 15.10. 2:00 9.9° C leicht bewölkt
Do, 14.10. 20:00 11.5° C bedeckt
Do, 14.10. 14:00 12.1° C bewölkt
Do, 14.10. 8:00 8.6° C Sprühregen
Ortszeit Temperatur Wetter
Sa, 16.10. 7:00 3.8° C wolkig
Sa, 16.10. 6:50 4° C bewölkt
Sa, 16.10. 6:40 3.5° C -
Sa, 16.10. 6:30 3.3° C -
Sa, 16.10. 6:20 3.3° C -
Sa, 16.10. 6:10 3.5° C -
Sa, 16.10. 6:00 3.6° C leicht bewölkt
Sa, 16.10. 5:30 3.8° C -
Sa, 16.10. 5:00 3.8° C leicht bewölkt
Sa, 16.10. 4:30 3.7° C -
Sa, 16.10. 4:00 4.3° C leicht bewölkt
Ortszeit Relative Feuchte Sichtweite
Sa, 16.10. 2:00 95% 40 km
Fr, 15.10. 20:00 91% 50 km
Fr, 15.10. 14:00 76% 45 km
Fr, 15.10. 8:00 80% 55 km
Fr, 15.10. 2:00 90% 30 km
Do, 14.10. 20:00 88% 25 km
Do, 14.10. 14:00 85% 35 km
Do, 14.10. 8:00 99% 2.5 km
Ortszeit Relative Feuchte Sichtweite
Sa, 16.10. 7:00 99% 15 km
Sa, 16.10. 6:50 100% >10 km
Sa, 16.10. 6:40 99% -
Sa, 16.10. 6:30 98% 4.6 km
Sa, 16.10. 6:20 98% -
Sa, 16.10. 6:10 98% -
Sa, 16.10. 6:00 98% 25 km
Sa, 16.10. 5:30 98% 12 km
Sa, 16.10. 5:00 98% 30 km
Sa, 16.10. 4:30 98% 12 km
Sa, 16.10. 4:00 97% 35 km
Ortszeit Niederschlagsmenge Niederschlagsart
Sa, 16.10. 2:00 0.0 l/m2 in 6 Std. -
Fr, 15.10. 20:00 0.4 l/m2 in 12 Std. Regen
Fr, 15.10. 14:00 0.1 l/m2 in 6 Std. Regen
Fr, 15.10. 8:00 0.0 l/m2 in 12 Std. -
Fr, 15.10. 2:00 0.0 l/m2 in 6 Std. -
Do, 14.10. 20:00 1 l/m2 in 12 Std. Sprühregen
Do, 14.10. 14:00 1 l/m2 in 6 Std. Regen
Do, 14.10. 8:00 3 l/m2 in 12 Std. Regen
Ortszeit Niederschlagsmenge Niederschlagsart
Sa, 16.10. 7:00 0.0 l/m2 in 1 Std. -
Sa, 16.10. 6:50 keine Meldung -
Sa, 16.10. 6:40 keine Meldung -
Sa, 16.10. 6:30 0.0 l/m2 in 1 Std. -
Sa, 16.10. 6:20 keine Meldung -
Sa, 16.10. 6:10 keine Meldung -
Sa, 16.10. 6:00 0.0 l/m2 in 1 Std. -
Sa, 16.10. 5:30 0.0 l/m2 in 1 Std. -
Sa, 16.10. 5:00 0.0 l/m2 in 1 Std. -
Sa, 16.10. 4:30 0.0 l/m2 in 1 Std. -
Sa, 16.10. 4:00 0.0 l/m2 in 1 Std. -
Ortszeit Stärke Spitze Richtung
km/h Bft. km/h Grad Sektor
Sa, 16.10. 2:00 11 2 18 250° W
Fr, 15.10. 20:00 11 2 43 260° W
Fr, 15.10. 14:00 31 5 50 240° SW
Fr, 15.10. 8:00 18 3 32 200° S
Fr, 15.10. 2:00 14 3 36 230° SW
Do, 14.10. 20:00 26 4 37 240° SW
Do, 14.10. 14:00 24 4 37 250° W
Do, 14.10. 8:00 22 4 32 240° SW
Ortszeit Stärke Spitze Richtung
km/h Bft. km/h Grad Sektor
Sa, 16.10. 7:00 9 2 13 220° SW
Sa, 16.10. 6:50 9 2 - 220° SW
Sa, 16.10. 6:40 7 2 - 230° SW
Sa, 16.10. 6:30 9 2 11 240° SW
Sa, 16.10. 6:20 9 2 - 240° SW
Sa, 16.10. 6:10 9 2 - 240° SW
Sa, 16.10. 6:00 11 2 14 230° SW
Sa, 16.10. 5:30 11 2 14 220° SW
Sa, 16.10. 5:00 11 2 14 230° SW
Sa, 16.10. 4:30 11 2 11 230° SW
Sa, 16.10. 4:00 11 2 14 250° W
Ortszeit Untergrenze Bedeckung Gattung
total tief tief mittel hoch
Sa, 16.10. 2:00 - 0/8 0/8 - - -
Fr, 15.10. 20:00 - 0/8 0/8 - - -
Fr, 15.10. 14:00 750 m 7/8 7/8 Cu - -
Fr, 15.10. 8:00 1410 m 7/8 7/8 Sc - -
Fr, 15.10. 2:00 1350 m 6/8 1/8 Sc Ac Ci
Do, 14.10. 20:00 450 m 8/8 7/8 Cu - -
Do, 14.10. 14:00 330 m 7/8 7/8 Cu - -
Do, 14.10. 8:00 150 m 8/8 8/8 St - -
Ortszeit Bedeckungsgrad in Achtel und Wolkenuntergrenze
Sa, 16.10. 7:00 3(690m) 5(1440m)
Sa, 16.10. 6:50 1-2(690m) 5-7(1440m)
Sa, 16.10. 6:40 -
Sa, 16.10. 6:30 -
Sa, 16.10. 6:20 -
Sa, 16.10. 6:10 -
Sa, 16.10. 6:00 2(1200m)
Sa, 16.10. 5:30 -
Sa, 16.10. 5:00 2(1200m)
Sa, 16.10. 4:30 -
Sa, 16.10. 4:00 2(1500m)
Ortszeit Luftdruck NN (hPa) Tendenz (hPa in 3 Std.)
Sa, 16.10. 2:00 1021 + 0,7
Fr, 15.10. 20:00 1019 + 2,4
Fr, 15.10. 14:00 1014 - 0,2
Fr, 15.10. 8:00 1015 - 1,7
Fr, 15.10. 2:00 1019 - 1,2
Do, 14.10. 20:00 1021 - 0,5
Do, 14.10. 14:00 1022 - 0,5
Do, 14.10. 8:00 1023 - 0,7
Ortszeit Luftdruck NN (hPa) Tendenz (hPa in 3 Std.)
Sa, 16.10. 7:00 1022 + 0,5
Sa, 16.10. 6:50 1021 keine Meldung
Sa, 16.10. 6:40 1022 keine Meldung
Sa, 16.10. 6:30 1022 + 0,5
Sa, 16.10. 6:20 1022 keine Meldung
Sa, 16.10. 6:10 1022 keine Meldung
Sa, 16.10. 6:00 1022 + 0,4
Sa, 16.10. 5:30 1022 + 0,4
Sa, 16.10. 5:00 1022 + 0,3
Sa, 16.10. 4:30 1022 + 0,5
Sa, 16.10. 4:00 1021 + 0,5
Ortszeit Schneehöhe (cm)
Sa, 16.10. 2:00 0
Fr, 15.10. 20:00 0
Fr, 15.10. 14:00 0
Fr, 15.10. 8:00 0
Fr, 15.10. 2:00 0
Do, 14.10. 20:00 0
Do, 14.10. 14:00 0
Do, 14.10. 8:00 0
Ortszeit Schneehöhe (cm)
Sa, 16.10. 7:00 0
Sa, 16.10. 6:50 -
Sa, 16.10. 6:40 0
Sa, 16.10. 6:30 0
Sa, 16.10. 6:20 0
Sa, 16.10. 6:10 0
Sa, 16.10. 6:00 0
Sa, 16.10. 5:30 0
Sa, 16.10. 5:00 0
Sa, 16.10. 4:30 0
Sa, 16.10. 4:00 0
Link zu dieser Seite / Seite empfehlen

Das Wetter in ...